Time;durP1;ratioP1;P1;durP2;ratioP2;P2;SDS_P1;SDS_P2;PMS_P1;PMS_P2;Temp;Humidity;BMP_temperature;BMP_pressure;BME280_temperature;BME280_humidity;BME280_pressure;Samples;Min_cycle;Max_cycle;Signal;HPM_P1;HPM_P2
2022/04/01 00:01:40;;;;;;;;;0.25;0.00;;;;;4.51;56.79;99837.22;4768862;29;46565;-82
2022/04/01 00:04:06;;;;;;;;;1.25;1.00;;;;;4.52;56.54;99829.38;4769321;29;46197;-81
2022/04/01 00:09:53;;;;;;;;;1.00;0.00;;;;;4.48;56.58;99819.28;4768933;29;45614;-82
2022/04/01 00:12:18;;;;;;;;;1.50;0.00;;;;;4.47;56.54;99830.56;4769191;29;45683;-82
2022/04/01 00:14:44;;;;;;;;;0.50;0.00;;;;;4.48;56.78;99820.06;4753153;29;47254;-83
2022/04/01 00:17:09;;;;;;;;;1.00;0.25;;;;;4.43;56.93;99813.50;4769959;29;45825;-82
2022/04/01 00:19:35;;;;;;;;;1.00;0.00;;;;;4.47;57.06;99797.69;4770560;29;45601;-82
2022/04/01 00:22:00;;;;;;;;;1.25;0.00;;;;;4.44;56.79;99803.03;4769516;29;46511;-82
2022/04/01 00:24:26;;;;;;;;;1.00;1.00;;;;;4.46;56.84;99810.72;4772558;29;45712;-82
2022/04/01 00:26:51;;;;;;;;;0.50;0.00;;;;;4.42;56.82;99798.88;4773126;29;45710;-83
2022/04/01 00:29:16;;;;;;;;;0.50;0.00;;;;;4.43;57.10;99813.50;4773272;29;45819;-81
2022/04/01 00:31:43;;;;;;;;;0.00;0.00;;;;;4.39;57.06;99806.81;4770972;29;46332;-81
2022/04/01 00:34:27;;;;;;;;;0.00;0.00;;;;;4.33;57.42;99828.75;4772561;29;45978;-83
2022/04/01 00:40:14;;;;;;;;;0.00;0.00;;;;;4.29;57.53;99806.53;4775112;29;45579;-81
2022/04/01 00:42:45;;;;;;;;;1.00;1.00;;;;;4.31;57.33;99815.06;4773656;29;46083;-81
2022/04/01 00:45:10;;;;;;;;;0.25;0.00;;;;;4.31;57.36;99794.31;4757874;29;47629;-82
2022/04/01 00:47:36;;;;;;;;;0.00;0.00;;;;;4.33;57.36;99792.47;4774221;29;45671;-82
2022/04/01 00:50:01;;;;;;;;;0.50;0.00;;;;;4.32;57.81;99797.75;4755164;29;45773;-81
2022/04/01 00:52:27;;;;;;;;;0.50;0.00;;;;;4.35;57.61;99852.00;4769313;29;45928;-81
2022/04/01 00:54:52;;;;;;;;;0.75;0.00;;;;;4.32;57.47;99779.59;4770300;29;45709;-81
2022/04/01 00:57:19;;;;;;;;;1.00;0.00;;;;;4.31;57.43;99793.50;4770114;29;45929;-82
2022/04/01 00:59:45;;;;;;;;;0.25;0.00;;;;;4.30;57.89;99799.59;4769270;29;45730;-82
2022/04/01 01:02:10;;;;;;;;;0.00;0.00;;;;;4.32;57.23;99795.16;4769526;29;46581;-82
2022/04/01 01:04:37;;;;;;;;;1.50;1.00;;;;;4.30;57.54;99790.06;4769253;29;45674;-82
2022/04/01 01:10:25;;;;;;;;;0.00;0.00;;;;;4.27;57.79;99763.47;4769445;29;45602;-81
2022/04/01 01:12:52;;;;;;;;;0.50;0.50;;;;;4.26;57.93;99764.41;4769343;29;45793;-82
2022/04/01 01:15:18;;;;;;;;;0.00;0.00;;;;;4.28;57.95;99762.53;4770044;29;45586;-81
2022/04/01 01:17:45;;;;;;;;;0.00;0.00;;;;;4.26;58.18;99749.69;4753280;29;45635;-81
2022/04/01 01:20:15;;;;;;;;;0.00;0.00;;;;;4.23;58.45;99752.44;4769893;29;45658;-81
2022/04/01 01:22:49;;;;;;;;;0.00;0.00;;;;;4.26;58.57;99754.88;4753123;29;47106;-80
2022/04/01 01:25:15;;;;;;;;;0.00;0.00;;;;;4.24;59.17;99748.94;4768856;29;46205;-80
2022/04/01 01:27:42;;;;;;;;;1.00;0.00;;;;;4.20;58.89;99756.06;4768674;29;45602;-80
2022/04/01 01:30:08;;;;;;;;;0.00;0.00;;;;;4.19;59.31;99777.72;4768874;29;45562;-79
2022/04/01 01:32:35;;;;;;;;;1.00;0.00;;;;;4.18;59.79;99742.34;4752096;29;48700;-80
2022/04/01 01:35:02;;;;;;;;;2.00;0.00;;;;;4.17;59.99;99729.47;4768662;29;46581;-80
2022/04/01 01:40:49;;;;;;;;;1.00;0.00;;;;;4.15;60.54;99742.53;4768481;29;45611;-80
2022/04/01 01:43:14;;;;;;;;;1.00;0.50;;;;;4.09;60.40;99737.72;4768419;29;45541;-82
2022/04/01 01:45:40;;;;;;;;;0.00;0.00;;;;;4.09;60.75;99737.72;4768433;29;45594;-82
2022/04/01 01:48:06;;;;;;;;;0.75;0.00;;;;;4.08;61.15;99730.03;4768396;29;45617;-82
2022/04/01 01:55:59;;;;;;;;;1.00;0.50;;;;;3.82;64.93;99704.81;4771006;29;46068;-82
2022/04/01 01:58:26;;;;;;;;;0.00;0.00;;;;;3.75;65.32;99751.78;4771406;29;46042;-82
2022/04/01 02:00:52;;;;;;;;;0.50;0.00;;;;;3.67;66.90;99761.72;4771507;29;45599;-81
2022/04/01 02:03:17;;;;;;;;;0.00;0.00;;;;;3.61;66.49;99701.69;4771385;29;45761;-82
2022/04/01 02:05:43;;;;;;;;;0.00;0.00;;;;;3.56;66.43;99707.13;4771253;29;45690;-80
2022/04/01 02:08:09;;;;;;;;;0.00;0.00;;;;;3.55;66.90;99696.88;4771231;29;45719;-82
2022/04/01 02:10:34;;;;;;;;;1.00;0.00;;;;;3.51;67.96;99719.47;4755542;29;45929;-82
2022/04/01 02:12:59;;;;;;;;;0.25;0.25;;;;;3.49;67.68;99710.16;4772333;29;45739;-82
2022/04/01 02:15:25;;;;;;;;;3.00;0.00;;;;;3.46;67.44;99685.25;4771770;29;46118;-82
2022/04/01 02:17:51;;;;;;;;;1.00;0.00;;;;;3.51;67.82;99679.84;4771548;29;45630;-81
2022/04/01 02:20:16;;;;;;;;;0.00;0.00;;;;;3.50;68.39;99722.19;4771938;29;45743;-81
2022/04/01 02:26:17;;;;;;;;;0.00;0.00;;;;;3.41;69.95;99691.59;4770254;29;45807;-82
2022/04/01 02:28:43;;;;;;;;;1.50;0.25;;;;;3.36;69.95;99684.09;4771988;29;45628;-81
2022/04/01 02:31:11;;;;;;;;;2.00;0.00;;;;;3.34;70.85;99717.03;4754964;29;45917;-82
2022/04/01 02:33:37;;;;;;;;;0.50;0.00;;;;;3.30;70.77;99695.63;4771121;29;46461;-81
2022/04/01 02:36:10;;;;;;;;;0.00;0.00;;;;;3.25;71.50;99683.88;4771969;29;46155;-81
2022/04/01 02:38:38;;;;;;;;;0.00;0.00;;;;;3.24;71.25;99677.88;4771755;29;45603;-81
2022/04/01 02:41:05;;;;;;;;;1.00;1.00;;;;;3.23;71.96;99680.56;4771554;29;45614;-82
2022/04/01 02:43:31;;;;;;;;;0.50;0.00;;;;;3.20;71.97;99698.81;4771508;29;45660;-82
2022/04/01 02:45:57;;;;;;;;;0.00;0.00;;;;;3.15;72.95;99709.44;4771620;29;46138;-82
2022/04/01 02:48:22;;;;;;;;;0.00;0.00;;;;;3.13;73.32;99646.56;4771831;29;45427;-81
2022/04/01 02:50:48;;;;;;;;;1.25;0.00;;;;;3.09;72.76;99680.47;4772570;29;45796;-81
2022/04/01 02:56:37;;;;;;;;;0.00;0.00;;;;;3.01;74.09;99678.31;4773160;29;45798;-82
2022/04/01 02:59:08;;;;;;;;;2.50;0.00;;;;;2.97;73.36;99683.75;4773359;29;45788;-80
2022/04/01 03:01:38;;;;;;;;;0.00;0.00;;;;;2.94;73.96;99674.41;4756836;29;45529;-82
2022/04/01 03:04:09;;;;;;;;;1.00;0.00;;;;;2.92;74.68;99674.47;4772668;29;46427;-82
2022/04/01 03:06:41;;;;;;;;;3.00;0.00;;;;;2.92;74.84;99684.81;4772041;29;46162;-82
2022/04/01 03:09:08;;;;;;;;;1.00;0.00;;;;;2.85;75.57;99665.41;4772490;29;45758;-83
2022/04/01 03:11:35;;;;;;;;;1.25;0.25;;;;;2.81;75.51;99679.41;4772200;29;45696;-83
2022/04/01 03:14:02;;;;;;;;;0.00;0.00;;;;;2.72;76.21;99645.44;4771543;29;45647;-83
2022/04/01 03:16:27;;;;;;;;;0.75;0.00;;;;;2.69;76.61;99651.63;4754503;29;46073;-82
2022/04/01 03:18:57;;;;;;;;;1.00;0.00;;;;;2.70;77.50;99663.63;4770963;29;45594;-82
2022/04/01 03:21:24;;;;;;;;;0.00;0.00;;;;;2.69;77.62;99637.88;4771465;29;45605;-82
2022/04/01 03:23:50;;;;;;;;;0.00;0.00;;;;;2.69;82.26;99645.63;4754866;29;48730;-82
2022/04/01 03:26:15;;;;;;;;;1.00;0.75;;;;;2.65;84.44;99632.00;4770444;29;45948;-81
2022/04/01 03:28:41;;;;;;;;;1.00;1.00;;;;;2.62;85.96;99646.88;4770251;29;45533;-82
2022/04/01 03:31:09;;;;;;;;;1.00;0.75;;;;;2.62;86.33;99639.13;4770527;29;45630;-81
2022/04/01 03:33:40;;;;;;;;;0.00;0.00;;;;;2.57;87.01;99656.63;4770528;29;46368;-83
2022/04/01 03:36:05;;;;;;;;;2.50;1.00;;;;;2.52;88.04;99639.63;4770102;29;46084;-82
2022/04/01 03:41:53;;;;;;;;;0.00;0.00;;;;;2.54;88.11;99662.78;4771111;29;45825;-82
2022/04/01 03:44:21;;;;;;;;;0.00;0.00;;;;;2.55;88.34;99643.78;4771124;29;45573;-82
2022/04/01 03:46:50;;;;;;;;;0.00;0.00;;;;;2.52;88.78;99616.34;4771025;29;46017;-82
2022/04/01 03:49:23;;;;;;;;;0.00;0.00;;;;;2.56;88.61;99647.19;4754232;29;45820;-82
2022/04/01 03:51:50;;;;;;;;;0.00;0.00;;;;;2.58;88.79;99622.09;4769978;29;45782;-82
2022/04/01 03:54:17;;;;;;;;;0.00;0.00;;;;;2.56;88.83;99632.53;4769769;29;45541;-82
2022/04/01 03:56:48;;;;;;;;;1.00;0.00;;;;;2.57;88.88;99635.94;4769670;29;46407;-81
2022/04/01 03:59:17;;;;;;;;;0.25;0.00;;;;;2.54;89.90;99658.44;4769569;29;45698;-80
2022/04/01 04:01:43;;;;;;;;;0.00;0.00;;;;;2.59;89.43;99634.13;4753413;29;45877;-81
2022/04/01 04:04:09;;;;;;;;;1.00;0.00;;;;;2.59;89.48;99623.78;4769634;29;45822;-81
2022/04/01 04:06:38;;;;;;;;;0.75;0.00;;;;;2.61;89.78;99625.34;4769644;29;46048;-81
2022/04/01 04:12:30;;;;;;;;;0.00;0.00;;;;;2.64;89.45;99632.13;4770626;29;45752;-82
2022/04/01 04:14:56;;;;;;;;;1.00;1.00;;;;;2.62;90.12;99627.03;4771072;29;45602;-81
2022/04/01 04:17:50;;;;;;;;;0.00;0.00;;;;;2.66;89.91;99618.19;4770134;29;45625;-81
2022/04/01 04:20:32;;;;;;;;;0.00;0.00;;;;;2.70;89.96;99605.94;4770760;29;45537;-81
2022/04/01 04:23:13;;;;;;;;;1.00;0.00;;;;;2.68;89.43;99615.53;4771630;29;45474;-80
2022/04/01 04:25:44;;;;;;;;;0.75;0.75;;;;;2.73;89.36;99610.94;4771379;29;46295;-78
2022/04/01 04:28:12;;;;;;;;;1.00;0.25;;;;;2.75;90.19;99596.16;4753610;29;46572;-80
2022/04/01 04:30:48;;;;;;;;;0.00;0.00;;;;;2.72;89.73;99609.25;4769772;29;45608;-82
2022/04/01 04:33:17;;;;;;;;;1.00;1.00;;;;;2.77;90.01;99623.59;4752857;29;45726;-81
2022/04/01 04:35:48;;;;;;;;;1.25;1.00;;;;;2.79;89.21;99611.44;4753107;29;45782;-81
2022/04/01 04:38:14;;;;;;;;;1.50;0.00;;;;;2.82;89.54;99611.25;4769644;29;46161;-81
2022/04/01 04:40:42;;;;;;;;;0.00;0.00;;;;;2.88;89.80;99608.31;4769522;29;45782;-79
2022/04/01 04:43:08;;;;;;;;;0.00;0.00;;;;;2.91;90.40;99639.22;4769565;29;45759;-81
2022/04/01 04:45:36;;;;;;;;;1.75;1.00;;;;;2.96;90.30;99623.44;4768881;29;45595;-80
2022/04/01 04:48:02;;;;;;;;;0.00;0.00;;;;;2.99;90.12;99633.59;4768965;29;46063;-81
2022/04/01 04:50:28;;;;;;;;;0.00;0.00;;;;;3.01;90.55;99652.47;4752589;29;45762;-81
2022/04/01 04:52:55;;;;;;;;;1.00;0.00;;;;;3.03;90.34;99624.72;4769334;29;45590;-81
2022/04/01 04:55:23;;;;;;;;;1.50;0.25;;;;;3.03;90.37;99642.00;4769036;29;46439;-80
2022/04/01 04:57:51;;;;;;;;;0.00;0.00;;;;;3.05;89.94;99637.59;4769100;29;45935;-81
2022/04/01 05:00:21;;;;;;;;;1.50;0.00;;;;;3.10;90.48;99635.56;4768773;29;45546;-81
2022/04/01 05:03:08;;;;;;;;;1.00;1.00;;;;;3.11;90.22;99665.72;4768814;29;45778;-81
2022/04/01 05:05:44;;;;;;;;;0.00;0.00;;;;;3.12;89.71;99644.09;4768782;29;45518;-81
2022/04/01 05:08:36;;;;;;;;;0.00;0.00;;;;;3.13;89.26;99646.56;4768597;29;45629;-81
2022/04/01 05:11:16;;;;;;;;;1.00;1.00;;;;;3.13;89.31;99646.56;4768607;29;45820;-81
2022/04/01 05:13:58;;;;;;;;;1.00;1.00;;;;;3.16;88.60;99637.81;4768941;29;45845;-81
2022/04/01 05:16:59;;;;;;;;;1.00;0.25;;;;;3.17;89.59;99645.50;4768920;29;45595;-81
2022/04/01 05:19:29;;;;;;;;;1.75;1.00;;;;;3.16;89.23;99646.41;4768687;29;46336;-80
2022/04/01 05:22:04;;;;;;;;;1.00;0.25;;;;;3.22;89.76;99674.53;4768594;29;45459;-82
2022/04/01 05:24:47;;;;;;;;;2.25;1.00;;;;;3.24;89.80;99658.94;4768779;29;45811;-81
2022/04/01 05:27:25;;;;;;;;;0.75;0.75;;;;;3.26;89.91;99657.09;4768223;29;45628;-81
2022/04/01 05:30:04;;;;;;;;;0.00;0.00;;;;;3.24;89.62;99700.34;4754915;29;48271;-81
2022/04/01 05:32:33;;;;;;;;;0.50;0.50;;;;;3.20;89.36;99672.94;4771707;29;45550;-81
2022/04/01 05:35:00;;;;;;;;;0.00;0.00;;;;;3.24;90.08;99675.28;4771848;29;45465;-81
2022/04/01 05:37:28;;;;;;;;;0.00;0.00;;;;;3.21;90.17;99669.44;4771652;29;46371;-80
2022/04/01 05:39:55;;;;;;;;;1.75;1.00;;;;;3.24;89.72;99671.88;4771759;29;46041;-80
2022/04/01 05:42:22;;;;;;;;;1.50;1.00;;;;;3.21;89.87;99679.81;4773495;29;45696;-80
2022/04/01 05:44:49;;;;;;;;;1.00;1.00;;;;;3.24;88.93;99670.09;4771747;29;45611;-80
2022/04/01 05:47:16;;;;;;;;;2.00;1.00;;;;;3.28;89.74;99681.13;4771294;29;45547;-81
2022/04/01 05:49:44;;;;;;;;;1.00;1.00;;;;;3.27;88.97;99695.00;4771371;29;45747;-79
2022/04/01 05:52:11;;;;;;;;;1.00;1.00;;;;;3.26;88.34;99670.03;4771617;29;45613;-81
2022/04/01 05:54:38;;;;;;;;;1.00;1.00;;;;;3.24;89.27;99654.56;4771376;29;45729;-79
2022/04/01 05:57:06;;;;;;;;;0.00;0.00;;;;;3.29;89.51;99699.16;4754808;29;46620;-80
2022/04/01 05:59:33;;;;;;;;;2.00;2.00;;;;;3.31;88.34;99693.88;4771189;29;46091;-80
2022/04/01 06:02:16;;;;;;;;;2.25;1.75;;;;;3.31;88.55;99683.53;4771086;29;45569;-80
2022/04/01 06:05:15;;;;;;;;;1.00;1.00;;;;;3.33;88.96;99686.88;4771195;29;45849;-78
2022/04/01 06:08:03;;;;;;;;;2.50;2.00;;;;;3.35;89.42;99706.56;4771015;29;46414;-78
2022/04/01 06:10:56;;;;;;;;;1.50;1.00;;;;;3.36;89.71;99687.53;4733261;30;45992;-80
2022/04/01 06:13:31;;;;;;;;;4.25;4.00;;;;;3.35;89.21;99708.31;4733304;30;45752;-79
2022/04/01 06:16:08;;;;;;;;;1.75;1.75;;;;;3.34;89.19;99712.69;4718162;30;45580;-77
2022/04/01 06:18:44;;;;;;;;;4.00;1.75;;;;;3.33;89.31;99705.00;4718045;30;47555;-79
2022/04/01 06:21:15;;;;;;;;;2.25;2.25;;;;;3.31;89.46;99715.44;4732980;30;46038;-78
2022/04/01 06:27:02;;;;;;;;;2.25;2.25;;;;;3.21;89.53;99727.22;4732513;30;45814;-78
2022/04/01 06:29:38;;;;;;;;;1.00;1.00;;;;;3.13;88.37;99754.44;4733065;30;46232;-78
2022/04/01 06:32:07;;;;;;;;;3.25;3.25;;;;;3.06;89.48;99741.00;4717923;30;47630;-78
2022/04/01 06:35:04;;;;;;;;;3.00;3.00;;;;;2.97;89.33;99733.72;4732994;30;45886;-78
2022/04/01 06:37:40;;;;;;;;;4.25;4.00;;;;;2.91;89.67;99750.44;4732836;30;45977;-79
2022/04/01 06:40:12;;;;;;;;;2.25;2.25;;;;;2.89;90.65;99730.72;4732184;29;45821;-78
2022/04/01 06:42:39;;;;;;;;;5.25;4.00;;;;;2.87;90.86;99743.72;4733031;30;45639;-79
2022/04/01 06:45:06;;;;;;;;;6.00;4.00;;;;;2.84;90.86;99725.81;4732976;30;45682;-77
2022/04/01 06:47:31;;;;;;;;;3.00;3.00;;;;;2.81;91.13;99720.78;4752032;29;45802;-79
2022/04/01 06:49:57;;;;;;;;;4.00;4.00;;;;;2.73;90.94;99761.75;4770417;29;45643;-79
2022/04/01 06:52:25;;;;;;;;;3.75;3.25;;;;;2.73;91.03;99769.50;4770313;29;46105;-79
2022/04/01 06:54:50;;;;;;;;;2.00;2.00;;;;;2.75;91.82;99784.94;4770446;29;45650;-77
2022/04/01 06:57:16;;;;;;;;;4.25;4.00;;;;;2.70;91.91;99745.56;4770128;29;45910;-79
2022/04/01 06:59:41;;;;;;;;;4.75;4.75;;;;;2.65;91.39;99739.75;4770396;29;46196;-77
2022/04/01 07:02:07;;;;;;;;;4.00;4.00;;;;;2.67;92.37;99764.63;4770255;29;46237;-77
2022/04/01 07:04:32;;;;;;;;;5.25;4.75;;;;;2.67;92.39;99761.22;4770300;29;45488;-77
2022/04/01 07:06:59;;;;;;;;;4.75;3.75;;;;;2.69;91.80;99760.25;4769651;29;45718;-77
2022/04/01 07:09:25;;;;;;;;;5.00;4.50;;;;;2.65;91.94;99763.88;4769815;29;45955;-78
2022/04/01 07:11:51;;;;;;;;;4.75;4.00;;;;;2.61;91.97;99740.84;4769603;29;46069;-78
2022/04/01 07:14:16;;;;;;;;;5.75;3.75;;;;;2.61;91.85;99777.88;4769832;29;45602;-78
2022/04/01 07:16:42;;;;;;;;;3.75;3.75;;;;;2.59;92.48;99817.69;4770515;29;45640;-79
2022/04/01 07:19:08;;;;;;;;;6.75;6.25;;;;;2.60;91.84;99765.88;4770127;29;45593;-79
2022/04/01 07:21:34;;;;;;;;;6.25;6.25;;;;;2.57;92.29;99760.03;4770229;29;46384;-79
2022/04/01 07:24:01;;;;;;;;;10.00;9.25;;;;;2.58;92.38;99806.50;4769802;29;45675;-79
2022/04/01 07:30:04;;;;;;;;;5.50;4.50;;;;;2.61;92.93;99795.97;4768725;29;45765;-80
2022/04/01 07:32:34;;;;;;;;;9.75;9.00;;;;;2.63;92.83;99811.44;4770521;29;45925;-80
2022/04/01 07:35:01;;;;;;;;;6.75;6.00;;;;;2.62;92.57;99783.91;4770370;29;45722;-81
2022/04/01 07:37:28;;;;;;;;;6.50;6.50;;;;;2.62;92.38;99789.91;4770447;29;45635;-80
2022/04/01 07:39:57;;;;;;;;;9.00;8.00;;;;;2.62;92.82;99813.16;4769615;29;46433;-80
2022/04/01 07:42:24;;;;;;;;;11.00;9.25;;;;;2.60;93.16;99781.38;4770162;29;46203;-80
2022/04/01 07:44:50;;;;;;;;;7.00;7.00;;;;;2.64;92.98;99793.25;4769550;29;45782;-80
2022/04/01 07:47:18;;;;;;;;;8.50;7.50;;;;;2.66;93.18;99775.06;4769629;29;45685;-80
2022/04/01 07:49:44;;;;;;;;;9.50;7.00;;;;;2.71;92.93;99791.16;4769333;29;45554;-80
2022/04/01 07:52:11;;;;;;;;;9.25;8.50;;;;;2.73;93.07;99807.44;4768066;29;46075;-80
2022/04/01 07:54:38;;;;;;;;;8.75;7.00;;;;;2.67;92.66;99828.44;4769307;29;45825;-79
2022/04/01 07:57:05;;;;;;;;;10.00;7.00;;;;;2.67;93.15;99793.09;4752958;29;45693;-79
2022/04/01 07:59:31;;;;;;;;;9.75;6.25;;;;;2.65;93.01;99799.22;4769297;29;45670;-79
2022/04/01 08:01:56;;;;;;;;;11.00;7.75;;;;;2.66;92.87;99806.91;4769062;29;46354;-80
2022/04/01 08:04:22;;;;;;;;;7.25;7.25;;;;;2.67;93.13;99825.84;4769262;29;45709;-78
2022/04/01 08:06:48;;;;;;;;;8.50;6.75;;;;;2.68;92.46;99809.44;4769621;29;45713;-78
2022/04/01 08:09:14;;;;;;;;;10.25;7.00;;;;;2.71;92.56;99827.38;4769402;29;46078;-78
2022/04/01 08:15:02;;;;;;;;;6.75;6.00;;;;;2.77;93.18;99824.47;4769313;29;45848;-80
2022/04/01 08:17:28;;;;;;;;;9.00;8.75;;;;;2.78;93.49;99826.97;4769383;29;45449;-80
2022/04/01 08:19:53;;;;;;;;;9.00;7.00;;;;;2.79;92.86;99833.84;4769164;29;45896;-80
2022/04/01 08:22:19;;;;;;;;;8.75;7.75;;;;;2.79;92.53;99843.34;4752818;29;46398;-79
2022/04/01 08:24:45;;;;;;;;;4.50;4.50;;;;;2.79;92.70;99838.16;4769229;29;45605;-78
2022/04/01 08:27:11;;;;;;;;;6.00;6.00;;;;;2.76;92.85;99869.34;4768944;29;45506;-78
2022/04/01 08:29:37;;;;;;;;;7.00;7.00;;;;;2.79;92.65;99851.94;4769089;29;45592;-78
2022/04/01 08:32:05;;;;;;;;;9.25;8.25;;;;;2.79;92.51;99848.50;4768907;29;45726;-79
2022/04/01 08:34:31;;;;;;;;;7.25;6.50;;;;;2.83;92.65;99844.84;4768981;29;45531;-79
2022/04/01 08:36:56;;;;;;;;;6.00;6.00;;;;;2.83;93.21;99856.03;4769326;29;45564;-80
2022/04/01 08:39:22;;;;;;;;;8.25;7.00;;;;;2.83;93.16;99894.81;4769088;29;46139;-80
2022/04/01 08:45:10;;;;;;;;;8.25;7.00;;;;;2.91;92.73;99918.56;4768821;29;45674;-80
2022/04/01 08:47:38;;;;;;;;;7.50;7.25;;;;;2.88;92.79;99864.38;4768795;29;45632;-80
2022/04/01 08:50:04;;;;;;;;;10.50;10.00;;;;;2.90;92.07;99900.53;4768745;29;46381;-78
2022/04/01 08:52:29;;;;;;;;;7.00;7.00;;;;;2.89;91.83;99894.50;4752466;29;48228;-80
2022/04/01 08:54:54;;;;;;;;;9.00;7.00;;;;;2.91;92.26;99897.03;4768775;29;45524;-80
2022/04/01 09:00:41;;;;;;;;;8.25;7.00;;;;;2.90;92.10;99891.03;4768371;29;46128;-79
2022/04/01 09:03:10;;;;;;;;;3.00;2.00;;;;;2.91;92.13;99900.47;4768379;29;45570;-79
2022/04/01 09:05:36;;;;;;;;;7.50;7.00;;;;;2.91;93.03;99890.13;4768711;29;45656;-78
2022/04/01 09:08:07;;;;;;;;;11.50;11.50;;;;;2.99;92.60;99902.63;4768628;29;45713;-79
2022/04/01 09:10:49;;;;;;;;;8.25;8.25;;;;;3.03;92.47;99919.66;4768327;29;45585;-79
2022/04/01 09:13:15;;;;;;;;;10.50;7.00;;;;;3.04;92.10;99898.06;4768305;29;45586;-78
2022/04/01 09:15:42;;;;;;;;;10.25;9.00;;;;;3.09;92.39;99926.28;4768584;29;45730;-79
2022/04/01 09:18:07;;;;;;;;;11.25;9.50;;;;;3.10;91.87;99915.00;4768671;29;45723;-77
2022/04/01 09:20:50;;;;;;;;;7.00;7.00;;;;;3.10;91.67;99926.22;4751755;29;46514;-78
2022/04/01 09:23:23;;;;;;;;;7.00;6.50;;;;;3.11;91.61;99927.03;4768350;29;46340;-78
2022/04/01 09:25:50;;;;;;;;;9.00;9.00;;;;;3.11;91.75;99929.63;4768475;29;45870;-77
2022/04/01 09:28:31;;;;;;;;;9.00;6.50;;;;;3.12;91.24;99934.75;4768537;29;45554;-79
2022/04/01 09:31:03;;;;;;;;;6.75;6.75;;;;;3.14;91.14;99935.47;4768211;29;46841;-80
2022/04/01 09:33:52;;;;;;;;;7.50;7.00;;;;;3.15;91.25;99929.38;4767763;29;46265;-78
2022/04/01 09:36:33;;;;;;;;;9.75;8.00;;;;;3.17;91.77;99937.91;4751488;29;45651;-78
2022/04/01 09:39:02;;;;;;;;;10.00;8.25;;;;;3.23;91.96;99934.19;4768178;29;45526;-79
2022/04/01 09:41:39;;;;;;;;;9.50;9.00;;;;;3.23;91.67;99960.91;4767848;29;46643;-78
2022/04/01 09:44:09;;;;;;;;;7.25;7.00;;;;;3.28;91.38;99951.16;4767782;29;46044;-78
2022/04/01 09:46:43;;;;;;;;;14.00;11.00;;;;;3.30;90.83;99943.28;4751299;29;45862;-77
2022/04/01 09:49:09;;;;;;;;;8.50;8.00;;;;;3.31;91.57;99950.13;4768033;29;45711;-79
2022/04/01 09:51:39;;;;;;;;;7.25;6.00;;;;;3.35;91.98;99946.47;4767655;29;46273;-80
2022/04/01 09:54:05;;;;;;;;;7.75;7.25;;;;;3.37;91.86;99960.19;4767875;29;46188;-78
2022/04/01 09:56:44;;;;;;;;;11.00;10.25;;;;;3.40;91.87;99965.22;4768155;29;45561;-78
2022/04/01 09:59:12;;;;;;;;;11.25;10.00;;;;;3.43;91.60;99953.84;4767821;29;45797;-77
2022/04/01 10:01:39;;;;;;;;;11.25;9.50;;;;;3.46;91.30;99971.78;4767378;29;45970;-81
2022/04/01 10:04:05;;;;;;;;;8.00;5.25;;;;;3.47;91.61;99968.28;4767382;29;45531;-80
2022/04/01 10:06:33;;;;;;;;;13.75;11.00;;;;;3.50;92.00;99965.56;4767216;29;45734;-79
2022/04/01 10:09:03;;;;;;;;;8.50;8.50;;;;;3.50;91.39;100001.81;4767414;29;45661;-79
2022/04/01 10:11:29;;;;;;;;;11.50;8.00;;;;;3.49;90.93;99969.91;4767089;29;45648;-80
2022/04/01 10:14:01;;;;;;;;;11.00;10.25;;;;;3.50;91.40;99971.56;4767816;29;45692;-79
2022/04/01 10:16:27;;;;;;;;;10.00;9.50;;;;;3.54;91.25;99982.59;4770090;29;45887;-79
2022/04/01 10:18:57;;;;;;;;;10.00;7.50;;;;;3.54;91.15;99980.84;4771454;29;45635;-79
2022/04/01 10:21:22;;;;;;;;;15.00;13.25;;;;;3.57;91.53;99970.31;4770682;29;45569;-79
2022/04/01 10:23:59;;;;;;;;;15.00;12.00;;;;;3.59;91.42;99976.25;4771685;29;46055;-80
2022/04/01 10:26:31;;;;;;;;;11.00;10.25;;;;;3.60;91.35;99987.47;4771179;29;45695;-79
2022/04/01 10:28:58;;;;;;;;;11.75;10.50;;;;;3.61;91.74;99977.03;4770728;29;45734;-78
2022/04/01 10:31:25;;;;;;;;;16.00;12.00;;;;;3.64;91.32;100009.69;4770699;29;46881;-80
2022/04/01 10:33:51;;;;;;;;;13.00;11.00;;;;;3.63;91.04;100001.06;4770823;29;45982;-79
2022/04/01 10:36:31;;;;;;;;;12.00;10.50;;;;;3.64;90.51;99991.56;4770478;29;45491;-78
2022/04/01 10:39:05;;;;;;;;;10.00;8.00;;;;;3.60;91.35;99996.06;4754519;29;45622;-79
2022/04/01 10:41:32;;;;;;;;;10.25;10.25;;;;;3.65;91.05;100003.59;4770323;29;45600;-78
2022/04/01 10:43:58;;;;;;;;;12.00;11.00;;;;;3.67;91.02;100010.34;4770779;29;46181;-78
2022/04/01 10:46:24;;;;;;;;;10.00;9.00;;;;;3.67;90.72;100000.00;4770324;29;45544;-78
2022/04/01 10:52:04;;;;;;;;;12.50;10.50;;;;;3.68;90.38;100030.16;4770121;29;46167;-78
2022/04/01 10:54:30;;;;;;;;;13.75;10.25;;;;;3.68;90.34;100016.38;4770366;29;46196;-78
2022/04/01 10:57:06;;;;;;;;;7.67;5.00;;;;;3.67;90.84;100025.09;4771536;29;45677;-77
2022/04/01 11:00:00;;;;;;;;;10.00;10.00;;;;;3.65;90.70;100013.97;4773917;29;45729;-79
2022/04/01 11:02:26;;;;;;;;;13.50;11.50;;;;;3.76;90.86;100032.38;4767745;29;47315;-80
2022/04/01 11:04:52;;;;;;;;;13.00;11.00;;;;;3.78;90.55;100036.53;4770360;29;45613;-80
2022/04/01 11:07:23;;;;;;;;;16.25;13.00;;;;;3.80;90.46;100019.16;4770403;29;45543;-79
2022/04/01 11:10:05;;;;;;;;;12.25;11.25;;;;;3.82;91.08;100044.16;4770381;29;45510;-79
2022/04/01 11:12:33;;;;;;;;;11.50;10.75;;;;;3.82;91.19;100042.41;4770515;29;45701;-80
2022/04/01 11:15:11;;;;;;;;;13.75;10.25;;;;;3.82;90.58;100051.94;4770548;29;46622;-79
2022/04/01 11:17:37;;;;;;;;;13.25;10.00;;;;;3.82;90.78;100042.41;4770305;29;45620;-78
2022/04/01 11:20:26;;;;;;;;;13.00;11.00;;;;;3.87;91.42;100052.53;4770271;29;45541;-79
2022/04/01 11:22:56;;;;;;;;;13.75;11.75;;;;;3.89;90.09;100045.53;4753828;29;47673;-79
2022/04/01 11:25:22;;;;;;;;;15.50;10.75;;;;;3.90;90.59;100048.00;4770087;29;46005;-80
2022/04/01 11:28:08;;;;;;;;;6.33;5.67;;;;;3.91;90.82;100041.06;4769628;29;45587;-79
2022/04/01 11:30:40;;;;;;;;;11.50;11.00;;;;;3.85;90.70;100037.06;4769680;29;45884;-79
2022/04/01 11:33:20;;;;;;;;;19.00;11.75;;;;;3.90;90.36;100044.56;4769903;29;46486;-78
2022/04/01 11:35:50;;;;;;;;;11.00;9.50;;;;;3.91;90.06;100051.44;4770666;29;46129;-78
2022/04/01 11:38:18;;;;;;;;;13.00;11.00;;;;;3.88;90.11;100052.44;4769686;29;45911;-79
2022/04/01 11:40:46;;;;;;;;;12.50;10.75;;;;;3.88;90.25;100049.88;4770092;29;45738;-83
2022/04/01 11:43:16;;;;;;;;;12.00;10.25;;;;;3.91;89.75;100051.44;4753497;29;49058;-81
2022/04/01 11:45:47;;;;;;;;;16.00;14.00;;;;;3.91;89.42;100062.63;4769644;29;46000;-82
2022/04/01 11:48:38;;;;;;;;;10.75;10.75;;;;;3.91;89.24;100067.81;4769557;29;45538;-82
2022/04/01 11:51:14;;;;;;;;;13.25;13.00;;;;;3.89;89.61;100071.44;4769745;29;45684;-81
2022/04/01 11:53:51;;;;;;;;;10.50;10.00;;;;;3.91;89.18;100049.69;4752993;29;47668;-81
2022/04/01 11:56:19;;;;;;;;;13.25;10.50;;;;;3.90;90.12;100067.91;4769670;29;46082;-81
2022/04/01 11:58:53;;;;;;;;;13.25;12.50;;;;;3.91;90.33;100062.63;4769926;29;45892;-81
2022/04/01 12:01:21;;;;;;;;;11.00;8.50;;;;;3.86;89.94;100067.22;4769925;29;45657;-81
2022/04/01 12:03:46;;;;;;;;;14.00;12.75;;;;;3.85;90.01;100090.63;4769567;29;45575;-82
2022/04/01 12:09:02;;;;;;;;;10.75;7.75;;;;;3.83;90.37;100077.78;4696604;30;45728;-80
2022/04/01 12:11:28;;;;;;;;;11.00;10.25;;;;;3.78;90.54;100065.03;4696481;30;45692;-80
2022/04/01 12:13:53;;;;;;;;;12.50;11.00;;;;;3.80;91.28;100086.53;4696431;30;45689;-81
2022/04/01 12:16:21;;;;;;;;;17.50;15.25;;;;;3.83;91.48;100089.88;4696523;30;45633;-80
2022/04/01 12:18:49;;;;;;;;;10.00;8.00;;;;;3.87;91.53;100096.56;4696785;30;45974;-81
2022/04/01 12:21:20;;;;;;;;;10.25;10.00;;;;;3.84;91.40;100097.56;4696596;30;45813;-79
2022/04/01 12:23:48;;;;;;;;;15.50;13.75;;;;;3.84;91.43;100104.47;4696255;30;45548;-81
2022/04/01 12:26:15;;;;;;;;;10.25;10.00;;;;;3.79;91.01;100105.56;4696359;30;45747;-81
2022/04/01 12:28:43;;;;;;;;;17.75;13.75;;;;;3.79;90.58;100128.03;4696175;30;45648;-81
2022/04/01 12:31:23;;;;;;;;;13.00;12.00;;;;;3.79;91.22;100099.53;4696125;30;46088;-81
2022/04/01 12:33:55;;;;;;;;;13.50;10.50;;;;;3.81;91.58;100100.31;4696691;30;45832;-82
2022/04/01 12:36:35;;;;;;;;;12.50;12.50;;;;;3.83;90.65;100103.69;4696192;30;46639;-82
2022/04/01 12:39:05;;;;;;;;;11.00;10.00;;;;;3.86;90.48;100094.88;4695563;30;45814;-83
2022/04/01 12:41:30;;;;;;;;;12.25;10.25;;;;;3.83;90.71;100108.84;4696184;30;45747;-84
2022/04/01 12:43:59;;;;;;;;;16.75;14.00;;;;;3.82;89.56;100104.59;4696212;30;46225;-83